Rancho Murieta, California
Current Conditions -  °F | °C
As of 10:16 AM on Friday 19 Dec 2014 (Local Time) from KMHR Reporting Station
Light Rain Light Rain  
Wind Chill: 50°   Ceiling: 3300
Heat Index: 50°   Visibility: 4mi
Dew Point: 50°   Wind: 5mph
Humidity: 100%   Direction: 100°E
Pressure: 30.22"   Gusts: NA
Location:  38.5091°N, 121.107°W
Report Text: KMHR 191816Z 10004KT 4SM -RABR SCT028 OVC033 10/10 A3022
Loading
Personal Weather Stations






























Interactive Weather Map New forecast layout! Learn more

10-Day Weather Forecast

Advertisements
Track Severe Weather on mobile